4XCWZ LLHZ-LLHZ

Flight info

Callsign 4XCWZ
Flight time 0h 5m
Altitude 800
Route CVFR
Aircraft C172/L-VD/A

Departure

Time 2026-04-17 21:18
Airport Herzliya Airport (LLHZ)

Arrival

Time 2026-04-17 21:24
Airport Herzliya Airport (LLHZ)
Time Latitude Longitude Altitude Speed Heading
2026-04-17 21:05 32.17851 34.83842 121 ft 0 kts 18°
2026-04-17 21:11 32.17852 34.83843 121 ft 0 kts 20°
2026-04-17 21:13 32.17854 34.83844 121 ft 2 kts 23°
2026-04-17 21:14 32.17862 34.83841 121 ft 3 kts 280°
2026-04-17 21:14 32.17878 34.83833 121 ft 1 kts 17°
2026-04-17 21:14 32.17887 34.83829 121 ft 0 kts 323°
2026-04-17 21:16 32.17901 34.83829 121 ft 5 kts 21°
2026-04-17 21:16 32.17924 34.83825 121 ft 0 kts 275°
2026-04-17 21:16 32.17949 34.83738 119 ft 36 kts 288°
2026-04-17 21:17 32.18086 34.83263 132 ft 76 kts 281°
2026-04-17 21:17 32.18259 34.82682 288 ft 71 kts 307°
2026-04-17 21:17 32.18663 34.82689 373 ft 62 kts 28°
2026-04-17 21:17 32.19064 34.82890 523 ft 62 kts 36°
2026-04-17 21:18 32.19312 34.83217 675 ft 48 kts 82°
2026-04-17 21:18 32.19180 34.83564 765 ft 53 kts 131°
2026-04-17 21:18 32.18955 34.83936 834 ft 62 kts 120°
2026-04-17 21:18 32.18786 34.84359 892 ft 56 kts 115°
2026-04-17 21:19 32.18634 34.84821 771 ft 61 kts 111°
2026-04-17 21:19 32.18384 34.85245 577 ft 66 kts 156°
2026-04-17 21:19 32.17919 34.85149 505 ft 68 kts 184°
2026-04-17 21:19 32.17733 34.84585 410 ft 86 kts 267°
2026-04-17 21:20 32.17903 34.83882 184 ft 91 kts 291°
2026-04-17 21:20 32.18093 34.83247 134 ft 76 kts 284°
2026-04-17 21:20 32.18240 34.82650 274 ft 76 kts 282°
2026-04-17 21:20 32.18641 34.82467 428 ft 62 kts 17°
2026-04-17 21:21 32.19074 34.82571 559 ft 65 kts 29°
2026-04-17 21:21 32.19463 34.82794 697 ft 60 kts 59°
2026-04-17 21:21 32.19559 34.83242 765 ft 62 kts 104°
2026-04-17 21:21 32.19318 34.83715 827 ft 68 kts 120°
2026-04-17 21:22 32.19049 34.84265 795 ft 79 kts 119°
2026-04-17 21:22 32.18771 34.84797 693 ft 69 kts 123°
2026-04-17 21:22 32.18499 34.85237 576 ft 62 kts 141°
2026-04-17 21:22 32.18089 34.85281 502 ft 62 kts 171°
2026-04-17 21:23 32.17689 34.85147 443 ft 64 kts 208°
2026-04-17 21:23 32.17643 34.84605 361 ft 78 kts 300°
2026-04-17 21:23 32.17865 34.84002 218 ft 81 kts 292°
2026-04-17 21:23 32.18045 34.83418 109 ft 65 kts 291°
2026-04-17 21:24 32.18121 34.83162 102 ft 16 kts 292°
2026-04-17 21:24 32.18127 34.83066 101 ft 9 kts 193°
2026-04-17 21:24 32.18106 34.83090 101 ft 0 kts 107°
2026-04-17 21:24 32.18099 34.83111 101 ft 6 kts 111°